sensor_id;sensor_type;location;lat;lon;timestamp;temperature;humidity
25556;DHT22;13447;57.174;-2.112;2023-05-14T00:01:36;9.20;1.00
25556;DHT22;13447;57.174;-2.112;2023-05-14T00:04:03;9.10;1.00
25556;DHT22;13447;57.174;-2.112;2023-05-14T00:06:30;9.10;1.00
25556;DHT22;13447;57.174;-2.112;2023-05-14T00:08:57;9.10;1.00
25556;DHT22;13447;57.174;-2.112;2023-05-14T00:11:24;9.10;1.00
25556;DHT22;13447;57.174;-2.112;2023-05-14T00:13:51;9.10;1.00
25556;DHT22;13447;57.174;-2.112;2023-05-14T00:16:18;9.10;1.00
25556;DHT22;13447;57.174;-2.112;2023-05-14T00:18:45;9.10;1.00
25556;DHT22;13447;57.174;-2.112;2023-05-14T00:21:12;9.10;1.00
25556;DHT22;13447;57.174;-2.112;2023-05-14T00:23:38;9.10;1.00
25556;DHT22;13447;57.174;-2.112;2023-05-14T00:26:05;9.10;1.00
25556;DHT22;13447;57.174;-2.112;2023-05-14T00:28:32;9.10;1.00
25556;DHT22;13447;57.174;-2.112;2023-05-14T00:30:59;9.10;1.00
25556;DHT22;13447;57.174;-2.112;2023-05-14T00:33:26;9.10;1.00
25556;DHT22;13447;57.174;-2.112;2023-05-14T00:35:53;9.00;1.00
25556;DHT22;13447;57.174;-2.112;2023-05-14T00:38:20;9.00;1.00
25556;DHT22;13447;57.174;-2.112;2023-05-14T00:40:47;9.00;1.00
25556;DHT22;13447;57.174;-2.112;2023-05-14T00:43:20;9.00;1.00
25556;DHT22;13447;57.174;-2.112;2023-05-14T00:45:49;9.00;1.00
25556;DHT22;13447;57.174;-2.112;2023-05-14T00:48:16;9.00;1.00
25556;DHT22;13447;57.174;-2.112;2023-05-14T00:50:43;9.00;1.00
25556;DHT22;13447;57.174;-2.112;2023-05-14T00:53:10;9.00;1.00
25556;DHT22;13447;57.174;-2.112;2023-05-14T00:55:38;9.00;1.00
25556;DHT22;13447;57.174;-2.112;2023-05-14T00:58:08;9.00;1.00
25556;DHT22;13447;57.174;-2.112;2023-05-14T01:00:35;9.00;1.00
25556;DHT22;13447;57.174;-2.112;2023-05-14T01:03:03;9.00;1.00
25556;DHT22;13447;57.174;-2.112;2023-05-14T01:05:46;9.00;1.00
25556;DHT22;13447;57.174;-2.112;2023-05-14T01:10:55;9.00;1.00
25556;DHT22;13447;57.174;-2.112;2023-05-14T01:13:27;8.90;1.00
25556;DHT22;13447;57.174;-2.112;2023-05-14T01:15:57;8.90;1.00
25556;DHT22;13447;57.174;-2.112;2023-05-14T01:18:25;9.00;1.00
25556;DHT22;13447;57.174;-2.112;2023-05-14T01:20:53;9.00;1.00
25556;DHT22;13447;57.174;-2.112;2023-05-14T01:23:20;9.00;1.00
25556;DHT22;13447;57.174;-2.112;2023-05-14T01:25:47;9.00;1.00
25556;DHT22;13447;57.174;-2.112;2023-05-14T01:28:17;9.00;1.00
25556;DHT22;13447;57.174;-2.112;2023-05-14T01:33:21;9.00;1.00
25556;DHT22;13447;57.174;-2.112;2023-05-14T01:35:50;9.00;1.00
25556;DHT22;13447;57.174;-2.112;2023-05-14T01:38:19;9.00;1.00
25556;DHT22;13447;57.174;-2.112;2023-05-14T01:40:47;9.00;1.00
25556;DHT22;13447;57.174;-2.112;2023-05-14T01:43:14;9.00;1.00
25556;DHT22;13447;57.174;-2.112;2023-05-14T01:45:42;9.00;1.00
25556;DHT22;13447;57.174;-2.112;2023-05-14T01:48:09;8.90;1.00
25556;DHT22;13447;57.174;-2.112;2023-05-14T01:50:36;8.90;1.00
25556;DHT22;13447;57.174;-2.112;2023-05-14T01:53:03;8.90;1.00
25556;DHT22;13447;57.174;-2.112;2023-05-14T01:55:30;8.90;1.00
25556;DHT22;13447;57.174;-2.112;2023-05-14T01:57:57;8.80;1.00
25556;DHT22;13447;57.174;-2.112;2023-05-14T02:00:24;8.90;1.00
25556;DHT22;13447;57.174;-2.112;2023-05-14T02:02:51;8.80;1.00
25556;DHT22;13447;57.174;-2.112;2023-05-14T02:05:18;8.80;1.00
25556;DHT22;13447;57.174;-2.112;2023-05-14T02:07:45;8.80;1.00
25556;DHT22;13447;57.174;-2.112;2023-05-14T02:10:12;8.80;1.00
25556;DHT22;13447;57.174;-2.112;2023-05-14T02:12:39;8.80;1.00
25556;DHT22;13447;57.174;-2.112;2023-05-14T02:15:06;8.80;1.00
25556;DHT22;13447;57.174;-2.112;2023-05-14T02:17:34;8.80;1.00
25556;DHT22;13447;57.174;-2.112;2023-05-14T02:20:01;8.80;1.00
25556;DHT22;13447;57.174;-2.112;2023-05-14T02:22:28;8.90;1.00
25556;DHT22;13447;57.174;-2.112;2023-05-14T02:24:55;8.80;1.00
25556;DHT22;13447;57.174;-2.112;2023-05-14T02:27:21;8.90;1.00
25556;DHT22;13447;57.174;-2.112;2023-05-14T02:29:48;8.90;1.00
25556;DHT22;13447;57.174;-2.112;2023-05-14T02:32:15;8.90;1.00
25556;DHT22;13447;57.174;-2.112;2023-05-14T02:34:42;8.90;1.00
25556;DHT22;13447;57.174;-2.112;2023-05-14T02:37:09;8.90;1.00
25556;DHT22;13447;57.174;-2.112;2023-05-14T02:39:35;8.90;1.00
25556;DHT22;13447;57.174;-2.112;2023-05-14T02:42:02;8.90;1.00
25556;DHT22;13447;57.174;-2.112;2023-05-14T02:44:29;8.90;1.00
25556;DHT22;13447;57.174;-2.112;2023-05-14T02:46:57;9.00;1.00
25556;DHT22;13447;57.174;-2.112;2023-05-14T02:49:24;9.00;1.00
25556;DHT22;13447;57.174;-2.112;2023-05-14T02:51:51;9.00;1.00
25556;DHT22;13447;57.174;-2.112;2023-05-14T02:54:19;9.00;1.00
25556;DHT22;13447;57.174;-2.112;2023-05-14T02:56:46;9.00;1.00
25556;DHT22;13447;57.174;-2.112;2023-05-14T02:59:13;9.00;1.00
25556;DHT22;13447;57.174;-2.112;2023-05-14T03:01:41;9.10;1.00
25556;DHT22;13447;57.174;-2.112;2023-05-14T03:04:08;9.10;1.00
25556;DHT22;13447;57.174;-2.112;2023-05-14T03:06:35;9.10;1.00
25556;DHT22;13447;57.174;-2.112;2023-05-14T03:09:02;9.00;1.00
25556;DHT22;13447;57.174;-2.112;2023-05-14T03:11:29;9.00;1.00
25556;DHT22;13447;57.174;-2.112;2023-05-14T03:13:56;9.00;1.00
25556;DHT22;13447;57.174;-2.112;2023-05-14T03:16:23;9.10;1.00
25556;DHT22;13447;57.174;-2.112;2023-05-14T03:18:49;9.00;1.00
25556;DHT22;13447;57.174;-2.112;2023-05-14T03:21:16;9.00;1.00
25556;DHT22;13447;57.174;-2.112;2023-05-14T03:23:43;9.00;1.00
25556;DHT22;13447;57.174;-2.112;2023-05-14T03:26:10;8.90;1.00
25556;DHT22;13447;57.174;-2.112;2023-05-14T03:28:37;8.90;1.00
25556;DHT22;13447;57.174;-2.112;2023-05-14T03:31:04;8.90;1.00
25556;DHT22;13447;57.174;-2.112;2023-05-14T03:33:31;8.80;1.00
25556;DHT22;13447;57.174;-2.112;2023-05-14T03:35:57;8.80;1.00
25556;DHT22;13447;57.174;-2.112;2023-05-14T03:38:24;8.80;1.00
25556;DHT22;13447;57.174;-2.112;2023-05-14T03:40:51;8.80;1.00
25556;DHT22;13447;57.174;-2.112;2023-05-14T03:43:18;8.80;1.00
25556;DHT22;13447;57.174;-2.112;2023-05-14T03:45:45;8.70;1.00
25556;DHT22;13447;57.174;-2.112;2023-05-14T03:48:12;8.80;1.00
25556;DHT22;13447;57.174;-2.112;2023-05-14T03:50:39;8.70;1.00
25556;DHT22;13447;57.174;-2.112;2023-05-14T03:53:06;8.70;1.00
25556;DHT22;13447;57.174;-2.112;2023-05-14T03:55:33;8.70;1.00
25556;DHT22;13447;57.174;-2.112;2023-05-14T03:58:00;8.70;1.00
25556;DHT22;13447;57.174;-2.112;2023-05-14T04:00:28;8.70;1.00
25556;DHT22;13447;57.174;-2.112;2023-05-14T04:02:55;8.60;1.00
25556;DHT22;13447;57.174;-2.112;2023-05-14T04:05:22;8.60;1.00
25556;DHT22;13447;57.174;-2.112;2023-05-14T04:07:48;8.60;1.00
25556;DHT22;13447;57.174;-2.112;2023-05-14T04:10:15;8.70;1.00
25556;DHT22;13447;57.174;-2.112;2023-05-14T04:12:42;8.70;1.00
25556;DHT22;13447;57.174;-2.112;2023-05-14T04:15:09;8.70;1.00
25556;DHT22;13447;57.174;-2.112;2023-05-14T04:17:36;8.70;1.00
25556;DHT22;13447;57.174;-2.112;2023-05-14T04:20:03;8.60;1.00
25556;DHT22;13447;57.174;-2.112;2023-05-14T04:22:30;8.50;1.00
25556;DHT22;13447;57.174;-2.112;2023-05-14T04:24:57;8.50;1.00
25556;DHT22;13447;57.174;-2.112;2023-05-14T04:27:24;8.40;1.00
25556;DHT22;13447;57.174;-2.112;2023-05-14T04:29:51;8.40;1.00
25556;DHT22;13447;57.174;-2.112;2023-05-14T04:32:18;8.40;1.00
25556;DHT22;13447;57.174;-2.112;2023-05-14T04:34:44;8.40;1.00
25556;DHT22;13447;57.174;-2.112;2023-05-14T04:37:12;8.40;1.00
25556;DHT22;13447;57.174;-2.112;2023-05-14T04:39:39;8.30;1.00
25556;DHT22;13447;57.174;-2.112;2023-05-14T04:42:06;8.30;1.00
25556;DHT22;13447;57.174;-2.112;2023-05-14T04:44:34;8.30;1.00
25556;DHT22;13447;57.174;-2.112;2023-05-14T04:47:01;8.30;1.00
25556;DHT22;13447;57.174;-2.112;2023-05-14T04:49:28;8.40;1.00
25556;DHT22;13447;57.174;-2.112;2023-05-14T04:51:55;8.40;1.00
25556;DHT22;13447;57.174;-2.112;2023-05-14T04:54:22;8.30;1.00
25556;DHT22;13447;57.174;-2.112;2023-05-14T04:56:49;8.40;1.00
25556;DHT22;13447;57.174;-2.112;2023-05-14T04:59:16;8.40;1.00
25556;DHT22;13447;57.174;-2.112;2023-05-14T05:01:43;8.40;1.00
25556;DHT22;13447;57.174;-2.112;2023-05-14T05:04:11;8.40;1.00
25556;DHT22;13447;57.174;-2.112;2023-05-14T05:06:38;8.40;1.00
25556;DHT22;13447;57.174;-2.112;2023-05-14T05:09:05;8.40;1.00
25556;DHT22;13447;57.174;-2.112;2023-05-14T05:11:32;8.50;1.00
25556;DHT22;13447;57.174;-2.112;2023-05-14T05:13:58;8.40;1.00
25556;DHT22;13447;57.174;-2.112;2023-05-14T05:16:25;8.50;1.00
25556;DHT22;13447;57.174;-2.112;2023-05-14T05:18:52;8.50;1.00
25556;DHT22;13447;57.174;-2.112;2023-05-14T05:21:19;8.60;1.00
25556;DHT22;13447;57.174;-2.112;2023-05-14T05:23:46;8.70;1.00
25556;DHT22;13447;57.174;-2.112;2023-05-14T05:26:13;8.80;1.00
25556;DHT22;13447;57.174;-2.112;2023-05-14T05:28:39;8.80;1.00
25556;DHT22;13447;57.174;-2.112;2023-05-14T05:31:06;8.80;1.00
25556;DHT22;13447;57.174;-2.112;2023-05-14T05:33:33;9.00;1.00
25556;DHT22;13447;57.174;-2.112;2023-05-14T05:36:00;9.10;1.00
25556;DHT22;13447;57.174;-2.112;2023-05-14T05:38:27;9.20;1.00
25556;DHT22;13447;57.174;-2.112;2023-05-14T05:40:54;9.20;1.00
25556;DHT22;13447;57.174;-2.112;2023-05-14T05:43:21;9.30;1.00
25556;DHT22;13447;57.174;-2.112;2023-05-14T05:45:47;9.40;1.00
25556;DHT22;13447;57.174;-2.112;2023-05-14T05:48:14;9.60;1.00
25556;DHT22;13447;57.174;-2.112;2023-05-14T05:50:41;9.80;1.00
25556;DHT22;13447;57.174;-2.112;2023-05-14T05:53:10;9.90;1.00
25556;DHT22;13447;57.174;-2.112;2023-05-14T05:55:37;10.00;1.00
25556;DHT22;13447;57.174;-2.112;2023-05-14T05:58:04;10.10;1.00
25556;DHT22;13447;57.174;-2.112;2023-05-14T06:00:31;10.40;1.00
25556;DHT22;13447;57.174;-2.112;2023-05-14T06:02:58;10.60;1.00
25556;DHT22;13447;57.174;-2.112;2023-05-14T06:05:25;10.60;1.00
25556;DHT22;13447;57.174;-2.112;2023-05-14T06:07:52;10.70;1.00
25556;DHT22;13447;57.174;-2.112;2023-05-14T06:10:19;10.80;1.00
25556;DHT22;13447;57.174;-2.112;2023-05-14T06:12:46;10.90;1.00
25556;DHT22;13447;57.174;-2.112;2023-05-14T06:15:13;11.10;1.00
25556;DHT22;13447;57.174;-2.112;2023-05-14T06:17:40;11.10;1.00
25556;DHT22;13447;57.174;-2.112;2023-05-14T06:20:07;11.20;1.00
25556;DHT22;13447;57.174;-2.112;2023-05-14T06:22:34;11.20;1.00
25556;DHT22;13447;57.174;-2.112;2023-05-14T06:25:01;11.20;1.00
25556;DHT22;13447;57.174;-2.112;2023-05-14T06:27:28;11.30;1.00
25556;DHT22;13447;57.174;-2.112;2023-05-14T06:29:55;11.30;1.00
25556;DHT22;13447;57.174;-2.112;2023-05-14T06:32:21;11.30;1.00
25556;DHT22;13447;57.174;-2.112;2023-05-14T06:34:48;11.30;1.00
25556;DHT22;13447;57.174;-2.112;2023-05-14T06:37:15;11.40;1.00
25556;DHT22;13447;57.174;-2.112;2023-05-14T06:39:42;11.40;1.00
25556;DHT22;13447;57.174;-2.112;2023-05-14T06:42:16;11.60;1.00
25556;DHT22;13447;57.174;-2.112;2023-05-14T06:44:43;11.60;1.00
25556;DHT22;13447;57.174;-2.112;2023-05-14T06:47:09;11.80;1.00
25556;DHT22;13447;57.174;-2.112;2023-05-14T06:49:36;12.00;1.00
25556;DHT22;13447;57.174;-2.112;2023-05-14T06:52:03;12.20;1.00
25556;DHT22;13447;57.174;-2.112;2023-05-14T06:54:30;12.40;99.90
25556;DHT22;13447;57.174;-2.112;2023-05-14T06:56:57;12.80;99.90
25556;DHT22;13447;57.174;-2.112;2023-05-14T06:59:24;13.10;99.90
25556;DHT22;13447;57.174;-2.112;2023-05-14T07:01:51;13.40;99.90
25556;DHT22;13447;57.174;-2.112;2023-05-14T07:04:18;13.50;99.90
25556;DHT22;13447;57.174;-2.112;2023-05-14T07:06:45;13.70;99.90
25556;DHT22;13447;57.174;-2.112;2023-05-14T07:09:11;13.90;99.90
25556;DHT22;13447;57.174;-2.112;2023-05-14T07:11:38;14.10;99.90
25556;DHT22;13447;57.174;-2.112;2023-05-14T07:14:05;14.20;99.90
25556;DHT22;13447;57.174;-2.112;2023-05-14T07:16:34;14.30;99.90
25556;DHT22;13447;57.174;-2.112;2023-05-14T07:19:01;14.30;99.90
25556;DHT22;13447;57.174;-2.112;2023-05-14T07:21:28;14.20;99.90
25556;DHT22;13447;57.174;-2.112;2023-05-14T07:23:55;14.20;99.90
25556;DHT22;13447;57.174;-2.112;2023-05-14T07:26:22;14.40;99.90
25556;DHT22;13447;57.174;-2.112;2023-05-14T07:28:50;14.60;99.90
25556;DHT22;13447;57.174;-2.112;2023-05-14T07:31:16;14.90;94.20
25556;DHT22;13447;57.174;-2.112;2023-05-14T07:33:43;14.90;25.80
25556;DHT22;13447;57.174;-2.112;2023-05-14T07:36:10;15.10;35.60
25556;DHT22;13447;57.174;-2.112;2023-05-14T07:38:37;14.90;27.50
25556;DHT22;13447;57.174;-2.112;2023-05-14T07:41:04;14.90;46.00
25556;DHT22;13447;57.174;-2.112;2023-05-14T07:43:31;15.10;54.80
25556;DHT22;13447;57.174;-2.112;2023-05-14T07:45:58;15.30;28.10
25556;DHT22;13447;57.174;-2.112;2023-05-14T07:48:24;15.40;6.20
25556;DHT22;13447;57.174;-2.112;2023-05-14T07:50:51;15.50;25.80
25556;DHT22;13447;57.174;-2.112;2023-05-14T07:53:18;15.60;32.20
25556;DHT22;13447;57.174;-2.112;2023-05-14T07:55:45;15.70;1.00
25556;DHT22;13447;57.174;-2.112;2023-05-14T07:58:13;15.70;1.00
25556;DHT22;13447;57.174;-2.112;2023-05-14T08:00:41;15.80;1.00
25556;DHT22;13447;57.174;-2.112;2023-05-14T08:03:07;16.00;1.00
25556;DHT22;13447;57.174;-2.112;2023-05-14T08:05:34;16.10;1.00
25556;DHT22;13447;57.174;-2.112;2023-05-14T08:08:01;16.20;1.00
25556;DHT22;13447;57.174;-2.112;2023-05-14T08:12:56;16.60;1.00
25556;DHT22;13447;57.174;-2.112;2023-05-14T08:15:23;16.70;1.00
25556;DHT22;13447;57.174;-2.112;2023-05-14T08:17:53;16.70;1.00
25556;DHT22;13447;57.174;-2.112;2023-05-14T08:20:20;16.80;1.00
25556;DHT22;13447;57.174;-2.112;2023-05-14T08:22:48;16.80;1.00
25556;DHT22;13447;57.174;-2.112;2023-05-14T08:25:15;16.70;1.00
25556;DHT22;13447;57.174;-2.112;2023-05-14T08:27:42;16.80;1.00
25556;DHT22;13447;57.174;-2.112;2023-05-14T08:30:08;16.90;1.00
25556;DHT22;13447;57.174;-2.112;2023-05-14T08:32:35;16.90;1.00
25556;DHT22;13447;57.174;-2.112;2023-05-14T08:35:04;17.00;1.00
25556;DHT22;13447;57.174;-2.112;2023-05-14T08:37:31;17.00;1.00
25556;DHT22;13447;57.174;-2.112;2023-05-14T08:39:58;16.90;1.00
25556;DHT22;13447;57.174;-2.112;2023-05-14T08:42:24;17.00;1.00
25556;DHT22;13447;57.174;-2.112;2023-05-14T08:44:52;17.20;1.00
25556;DHT22;13447;57.174;-2.112;2023-05-14T08:47:22;17.30;1.00
25556;DHT22;13447;57.174;-2.112;2023-05-14T08:50:02;17.50;1.00
25556;DHT22;13447;57.174;-2.112;2023-05-14T08:52:30;17.40;1.00
25556;DHT22;13447;57.174;-2.112;2023-05-14T08:55:02;17.60;1.00
25556;DHT22;13447;57.174;-2.112;2023-05-14T08:57:31;17.70;1.00
25556;DHT22;13447;57.174;-2.112;2023-05-14T08:59:58;17.70;1.00
25556;DHT22;13447;57.174;-2.112;2023-05-14T09:02:29;17.80;1.00
25556;DHT22;13447;57.174;-2.112;2023-05-14T09:05:00;17.80;1.00
25556;DHT22;13447;57.174;-2.112;2023-05-14T09:07:27;17.90;1.00
25556;DHT22;13447;57.174;-2.112;2023-05-14T09:09:54;17.80;1.00
25556;DHT22;13447;57.174;-2.112;2023-05-14T09:12:21;17.70;1.00
25556;DHT22;13447;57.174;-2.112;2023-05-14T09:14:49;17.90;1.00
25556;DHT22;13447;57.174;-2.112;2023-05-14T09:17:16;18.00;1.00
25556;DHT22;13447;57.174;-2.112;2023-05-14T09:19:44;17.90;1.00
25556;DHT22;13447;57.174;-2.112;2023-05-14T09:41:52;18.10;1.00
25556;DHT22;13447;57.174;-2.112;2023-05-14T09:44:20;18.30;1.00
25556;DHT22;13447;57.174;-2.112;2023-05-14T09:46:47;18.40;1.00
25556;DHT22;13447;57.174;-2.112;2023-05-14T09:49:15;18.50;1.00
25556;DHT22;13447;57.174;-2.112;2023-05-14T09:51:41;18.60;1.00
25556;DHT22;13447;57.174;-2.112;2023-05-14T09:54:08;18.60;1.00
25556;DHT22;13447;57.174;-2.112;2023-05-14T09:56:35;18.40;1.00
25556;DHT22;13447;57.174;-2.112;2023-05-14T09:59:02;18.50;1.00
25556;DHT22;13447;57.174;-2.112;2023-05-14T10:01:30;18.50;1.00
25556;DHT22;13447;57.174;-2.112;2023-05-14T10:03:58;18.50;1.00
25556;DHT22;13447;57.174;-2.112;2023-05-14T10:06:27;18.60;1.00
25556;DHT22;13447;57.174;-2.112;2023-05-14T10:08:54;18.70;1.00
25556;DHT22;13447;57.174;-2.112;2023-05-14T10:11:24;18.90;1.00
25556;DHT22;13447;57.174;-2.112;2023-05-14T10:16:27;19.00;1.00
25556;DHT22;13447;57.174;-2.112;2023-05-14T10:18:59;19.00;1.00
25556;DHT22;13447;57.174;-2.112;2023-05-14T10:21:26;19.00;1.00
25556;DHT22;13447;57.174;-2.112;2023-05-14T10:23:55;19.10;1.00
25556;DHT22;13447;57.174;-2.112;2023-05-14T10:26:22;19.20;1.00
25556;DHT22;13447;57.174;-2.112;2023-05-14T10:28:49;19.40;1.00
25556;DHT22;13447;57.174;-2.112;2023-05-14T10:31:16;19.50;1.00
25556;DHT22;13447;57.174;-2.112;2023-05-14T10:33:46;19.60;99.90
25556;DHT22;13447;57.174;-2.112;2023-05-14T10:36:13;19.50;99.90
25556;DHT22;13447;57.174;-2.112;2023-05-14T10:38:40;19.60;99.90
25556;DHT22;13447;57.174;-2.112;2023-05-14T10:41:11;19.70;99.90
25556;DHT22;13447;57.174;-2.112;2023-05-14T10:43:38;19.60;99.90
25556;DHT22;13447;57.174;-2.112;2023-05-14T10:46:06;19.60;99.90
25556;DHT22;13447;57.174;-2.112;2023-05-14T10:48:33;19.60;99.90
25556;DHT22;13447;57.174;-2.112;2023-05-14T10:51:00;19.50;99.90
25556;DHT22;13447;57.174;-2.112;2023-05-14T10:56:01;19.40;99.90
25556;DHT22;13447;57.174;-2.112;2023-05-14T10:58:30;19.30;99.90
25556;DHT22;13447;57.174;-2.112;2023-05-14T11:00:59;19.10;99.90
25556;DHT22;13447;57.174;-2.112;2023-05-14T11:03:29;18.90;99.90
25556;DHT22;13447;57.174;-2.112;2023-05-14T11:05:58;18.70;99.90
25556;DHT22;13447;57.174;-2.112;2023-05-14T11:08:27;18.50;99.90
25556;DHT22;13447;57.174;-2.112;2023-05-14T11:10:54;18.10;99.90
25556;DHT22;13447;57.174;-2.112;2023-05-14T11:13:22;17.70;99.90
25556;DHT22;13447;57.174;-2.112;2023-05-14T11:15:49;17.50;99.90
25556;DHT22;13447;57.174;-2.112;2023-05-14T11:20:43;17.10;1.00
25556;DHT22;13447;57.174;-2.112;2023-05-14T11:23:10;17.00;1.00
25556;DHT22;13447;57.174;-2.112;2023-05-14T11:25:37;16.90;1.00
25556;DHT22;13447;57.174;-2.112;2023-05-14T11:28:03;16.70;1.00
25556;DHT22;13447;57.174;-2.112;2023-05-14T11:30:30;16.60;1.00
25556;DHT22;13447;57.174;-2.112;2023-05-14T11:32:57;16.50;1.00
25556;DHT22;13447;57.174;-2.112;2023-05-14T11:35:27;16.30;1.00
25556;DHT22;13447;57.174;-2.112;2023-05-14T11:37:54;16.20;1.00
25556;DHT22;13447;57.174;-2.112;2023-05-14T11:40:21;16.20;1.00
25556;DHT22;13447;57.174;-2.112;2023-05-14T11:42:51;16.20;1.00
25556;DHT22;13447;57.174;-2.112;2023-05-14T11:45:25;16.10;1.00
25556;DHT22;13447;57.174;-2.112;2023-05-14T11:47:52;16.10;1.00
25556;DHT22;13447;57.174;-2.112;2023-05-14T11:50:20;16.20;1.00
25556;DHT22;13447;57.174;-2.112;2023-05-14T11:52:48;16.40;1.00
25556;DHT22;13447;57.174;-2.112;2023-05-14T11:55:16;16.30;7.70
25556;DHT22;13447;57.174;-2.112;2023-05-14T11:57:43;16.30;30.40
25556;DHT22;13447;57.174;-2.112;2023-05-14T12:00:10;16.40;89.30
25556;DHT22;13447;57.174;-2.112;2023-05-14T12:02:42;16.50;63.20
25556;DHT22;13447;57.174;-2.112;2023-05-14T12:05:11;16.40;39.50
25556;DHT22;13447;57.174;-2.112;2023-05-14T12:07:38;16.40;44.00
25556;DHT22;13447;57.174;-2.112;2023-05-14T12:10:05;16.40;99.90
25556;DHT22;13447;57.174;-2.112;2023-05-14T12:12:35;16.30;99.90
25556;DHT22;13447;57.174;-2.112;2023-05-14T12:15:11;15.90;99.90
25556;DHT22;13447;57.174;-2.112;2023-05-14T12:17:39;15.90;99.90
25556;DHT22;13447;57.174;-2.112;2023-05-14T12:20:09;16.10;99.90
25556;DHT22;13447;57.174;-2.112;2023-05-14T12:22:36;15.80;99.90
25556;DHT22;13447;57.174;-2.112;2023-05-14T12:25:08;15.80;99.90
25556;DHT22;13447;57.174;-2.112;2023-05-14T12:27:36;15.70;99.90
25556;DHT22;13447;57.174;-2.112;2023-05-14T12:30:04;15.60;99.90
25556;DHT22;13447;57.174;-2.112;2023-05-14T12:32:51;15.40;99.90
25556;DHT22;13447;57.174;-2.112;2023-05-14T12:35:19;15.50;99.90
25556;DHT22;13447;57.174;-2.112;2023-05-14T12:37:46;15.40;99.90
25556;DHT22;13447;57.174;-2.112;2023-05-14T12:40:13;15.50;99.90
25556;DHT22;13447;57.174;-2.112;2023-05-14T12:42:40;15.30;99.90
25556;DHT22;13447;57.174;-2.112;2023-05-14T12:45:07;15.10;99.90
25556;DHT22;13447;57.174;-2.112;2023-05-14T12:47:34;15.10;99.90
25556;DHT22;13447;57.174;-2.112;2023-05-14T12:50:03;15.20;99.90
25556;DHT22;13447;57.174;-2.112;2023-05-14T12:52:30;15.20;99.90
25556;DHT22;13447;57.174;-2.112;2023-05-14T12:54:59;15.10;99.90
25556;DHT22;13447;57.174;-2.112;2023-05-14T12:57:27;15.10;99.90
25556;DHT22;13447;57.174;-2.112;2023-05-14T12:59:55;15.20;99.90
25556;DHT22;13447;57.174;-2.112;2023-05-14T13:02:23;15.20;99.90
25556;DHT22;13447;57.174;-2.112;2023-05-14T13:04:50;15.20;99.90
25556;DHT22;13447;57.174;-2.112;2023-05-14T13:07:17;15.30;99.90
25556;DHT22;13447;57.174;-2.112;2023-05-14T13:09:44;15.30;99.90
25556;DHT22;13447;57.174;-2.112;2023-05-14T13:12:11;15.40;99.90
25556;DHT22;13447;57.174;-2.112;2023-05-14T13:14:38;15.30;99.90
25556;DHT22;13447;57.174;-2.112;2023-05-14T13:17:05;15.30;99.90
25556;DHT22;13447;57.174;-2.112;2023-05-14T13:19:33;15.30;99.90
25556;DHT22;13447;57.174;-2.112;2023-05-14T13:22:00;15.40;99.90
25556;DHT22;13447;57.174;-2.112;2023-05-14T13:24:27;15.40;99.90
25556;DHT22;13447;57.174;-2.112;2023-05-14T13:26:54;15.30;99.90
25556;DHT22;13447;57.174;-2.112;2023-05-14T13:29:21;15.30;99.90
25556;DHT22;13447;57.174;-2.112;2023-05-14T13:31:48;15.30;99.90
25556;DHT22;13447;57.174;-2.112;2023-05-14T13:34:15;15.40;99.90
25556;DHT22;13447;57.174;-2.112;2023-05-14T13:36:42;15.40;99.90
25556;DHT22;13447;57.174;-2.112;2023-05-14T13:39:09;15.30;99.90
25556;DHT22;13447;57.174;-2.112;2023-05-14T13:41:39;15.40;99.90
25556;DHT22;13447;57.174;-2.112;2023-05-14T13:44:06;15.40;99.90
25556;DHT22;13447;57.174;-2.112;2023-05-14T13:49:00;15.50;99.90
25556;DHT22;13447;57.174;-2.112;2023-05-14T13:51:27;15.40;99.90
25556;DHT22;13447;57.174;-2.112;2023-05-14T13:53:54;15.50;99.90
25556;DHT22;13447;57.174;-2.112;2023-05-14T13:56:21;15.60;99.90
25556;DHT22;13447;57.174;-2.112;2023-05-14T13:58:48;15.60;99.90
25556;DHT22;13447;57.174;-2.112;2023-05-14T14:01:15;15.60;99.90
25556;DHT22;13447;57.174;-2.112;2023-05-14T14:03:42;15.50;99.90
25556;DHT22;13447;57.174;-2.112;2023-05-14T14:06:09;15.50;99.90
25556;DHT22;13447;57.174;-2.112;2023-05-14T14:08:36;15.30;99.90
25556;DHT22;13447;57.174;-2.112;2023-05-14T14:11:03;14.70;99.90
25556;DHT22;13447;57.174;-2.112;2023-05-14T14:13:29;14.20;99.90
25556;DHT22;13447;57.174;-2.112;2023-05-14T14:15:56;13.80;99.90
25556;DHT22;13447;57.174;-2.112;2023-05-14T14:18:24;13.50;99.90
25556;DHT22;13447;57.174;-2.112;2023-05-14T14:20:51;13.20;99.90
25556;DHT22;13447;57.174;-2.112;2023-05-14T14:23:18;13.00;99.90
25556;DHT22;13447;57.174;-2.112;2023-05-14T14:25:45;12.80;99.90
25556;DHT22;13447;57.174;-2.112;2023-05-14T14:28:12;12.60;99.90
25556;DHT22;13447;57.174;-2.112;2023-05-14T14:30:39;12.60;99.90
25556;DHT22;13447;57.174;-2.112;2023-05-14T14:33:06;12.50;99.90
25556;DHT22;13447;57.174;-2.112;2023-05-14T14:35:33;12.40;99.90
25556;DHT22;13447;57.174;-2.112;2023-05-14T14:38:01;12.40;99.90
25556;DHT22;13447;57.174;-2.112;2023-05-14T14:40:28;12.30;99.90
25556;DHT22;13447;57.174;-2.112;2023-05-14T14:42:55;12.30;99.90
25556;DHT22;13447;57.174;-2.112;2023-05-14T14:45:22;12.20;99.90
25556;DHT22;13447;57.174;-2.112;2023-05-14T14:47:49;12.20;99.90
25556;DHT22;13447;57.174;-2.112;2023-05-14T14:50:16;12.10;99.90
25556;DHT22;13447;57.174;-2.112;2023-05-14T14:52:43;12.20;1.00
25556;DHT22;13447;57.174;-2.112;2023-05-14T14:55:11;12.10;1.00
25556;DHT22;13447;57.174;-2.112;2023-05-14T14:57:38;12.20;1.00
25556;DHT22;13447;57.174;-2.112;2023-05-14T15:00:05;12.10;1.00
25556;DHT22;13447;57.174;-2.112;2023-05-14T15:02:33;12.10;1.00
25556;DHT22;13447;57.174;-2.112;2023-05-14T15:05:00;12.00;1.00
25556;DHT22;13447;57.174;-2.112;2023-05-14T15:07:27;12.10;1.00
25556;DHT22;13447;57.174;-2.112;2023-05-14T15:09:58;12.10;1.00
25556;DHT22;13447;57.174;-2.112;2023-05-14T15:12:25;12.10;1.00
25556;DHT22;13447;57.174;-2.112;2023-05-14T15:14:52;12.30;1.00
25556;DHT22;13447;57.174;-2.112;2023-05-14T15:17:18;12.20;1.00
25556;DHT22;13447;57.174;-2.112;2023-05-14T15:19:45;12.20;1.00
25556;DHT22;13447;57.174;-2.112;2023-05-14T15:22:13;12.20;99.90
25556;DHT22;13447;57.174;-2.112;2023-05-14T15:24:39;12.20;99.90
25556;DHT22;13447;57.174;-2.112;2023-05-14T15:27:07;12.10;99.90
25556;DHT22;13447;57.174;-2.112;2023-05-14T15:29:40;12.10;99.90
25556;DHT22;13447;57.174;-2.112;2023-05-14T15:32:24;12.10;99.90
25556;DHT22;13447;57.174;-2.112;2023-05-14T15:34:55;12.10;99.90
25556;DHT22;13447;57.174;-2.112;2023-05-14T15:37:28;12.00;99.90
25556;DHT22;13447;57.174;-2.112;2023-05-14T15:40:01;11.90;99.90
25556;DHT22;13447;57.174;-2.112;2023-05-14T15:42:28;11.80;99.90
25556;DHT22;13447;57.174;-2.112;2023-05-14T15:44:56;11.90;99.90
25556;DHT22;13447;57.174;-2.112;2023-05-14T15:47:23;11.90;1.00
25556;DHT22;13447;57.174;-2.112;2023-05-14T15:49:50;12.00;1.00
25556;DHT22;13447;57.174;-2.112;2023-05-14T15:52:16;12.10;1.00
25556;DHT22;13447;57.174;-2.112;2023-05-14T15:54:44;12.00;1.00
25556;DHT22;13447;57.174;-2.112;2023-05-14T15:57:11;12.00;1.00
25556;DHT22;13447;57.174;-2.112;2023-05-14T15:59:38;12.00;1.00
25556;DHT22;13447;57.174;-2.112;2023-05-14T16:02:06;12.10;1.00
25556;DHT22;13447;57.174;-2.112;2023-05-14T16:04:33;12.10;1.00
25556;DHT22;13447;57.174;-2.112;2023-05-14T16:07:03;12.20;1.00
25556;DHT22;13447;57.174;-2.112;2023-05-14T16:09:33;12.30;1.00
25556;DHT22;13447;57.174;-2.112;2023-05-14T16:12:00;12.50;1.00